Time;durP1;ratioP1;P1;durP2;ratioP2;P2;SDS_P1;SDS_P2;PMS_P1;PMS_P2;Temp;Humidity;BMP_temperature;BMP_pressure;BME280_temperature;BME280_humidity;BME280_pressure;Samples;Min_cycle;Max_cycle;Signal;HPM_P1;HPM_P2
2023/10/27 00:01:18;;;;;;;38.05;14.98;;;11.40;99.90;;;;;;4995515;28;20113;-88
2023/10/27 00:03:43;;;;;;;34.63;14.50;;;11.50;99.90;;;;;;4997823;28;20026;-88
2023/10/27 00:06:09;;;;;;;34.72;14.88;;;11.50;99.90;;;;;;4997910;28;20058;-89
2023/10/27 00:08:35;;;;;;;37.88;15.57;;;11.50;99.90;;;;;;4997163;28;20030;-90
2023/10/27 00:11:05;;;;;;;33.75;14.02;;;11.50;99.90;;;;;;4998182;28;20034;-87
2023/10/27 00:13:31;;;;;;;35.30;13.95;;;11.40;99.90;;;;;;4998021;28;20018;-88
2023/10/27 00:15:56;;;;;;;33.00;14.00;;;11.40;99.90;;;;;;4995978;28;20487;-89
2023/10/27 00:18:22;;;;;;;42.88;15.52;;;11.30;99.90;;;;;;4996314;28;20033;-88
2023/10/27 00:20:48;;;;;;;30.98;15.20;;;11.30;99.90;;;;;;4997742;28;20395;-90
2023/10/27 00:23:15;;;;;;;40.05;15.38;;;11.30;99.90;;;;;;4995651;28;20037;-92
2023/10/27 00:25:42;;;;;;;33.90;14.25;;;11.30;99.90;;;;;;4998333;28;20034;-91
2023/10/27 00:28:08;;;;;;;34.90;15.17;;;11.30;99.90;;;;;;4998129;28;20030;-90
2023/10/27 00:30:34;;;;;;;29.98;12.43;;;11.30;99.90;;;;;;4997898;28;20435;-89
2023/10/27 00:33:00;;;;;;;34.25;14.70;;;11.30;99.90;;;;;;4997803;28;20391;-89
2023/10/27 00:35:25;;;;;;;34.67;14.15;;;11.30;99.90;;;;;;4999165;28;20097;-89
2023/10/27 00:37:51;;;;;;;32.83;14.07;;;11.30;99.90;;;;;;4998147;28;20092;-88
2023/10/27 00:40:18;;;;;;;32.63;14.65;;;11.30;99.90;;;;;;4996801;28;20019;-88
2023/10/27 00:42:44;;;;;;;35.33;14.98;;;11.30;99.90;;;;;;4997306;28;20078;-86
2023/10/27 00:45:10;;;;;;;39.67;16.60;;;11.30;99.90;;;;;;4995634;28;20433;-86
2023/10/27 00:47:36;;;;;;;26.48;12.90;;;11.40;99.90;;;;;;4995032;28;20038;-86
2023/10/27 00:50:03;;;;;;;34.60;14.32;;;11.40;99.90;;;;;;4995074;28;20015;-86
2023/10/27 00:52:30;;;;;;;29.55;13.68;;;11.50;99.90;;;;;;4995071;28;20618;-87
2023/10/27 00:54:56;;;;;;;36.10;14.88;;;11.50;99.90;;;;;;4997205;28;20054;-87
2023/10/27 00:57:23;;;;;;;39.47;14.52;;;11.50;99.90;;;;;;4996456;28;20446;-87
2023/10/27 00:59:52;;;;;;;30.07;13.27;;;11.50;99.90;;;;;;4996492;28;20504;-88
2023/10/27 01:02:18;;;;;;;31.73;13.43;;;11.50;99.90;;;;;;4995727;28;20038;-88
2023/10/27 01:04:45;;;;;;;33.22;14.10;;;11.50;99.90;;;;;;4996436;28;20033;-88
2023/10/27 01:07:13;;;;;;;30.52;14.05;;;11.50;99.90;;;;;;4996246;28;20053;-88
2023/10/27 01:09:39;;;;;;;27.92;12.52;;;11.50;99.90;;;;;;4996668;28;20026;-88
2023/10/27 01:12:05;;;;;;;33.08;14.10;;;11.50;99.90;;;;;;4997149;28;20096;-89
2023/10/27 01:14:31;;;;;;;29.83;13.60;;;11.40;99.90;;;;;;4996878;28;20022;-88
2023/10/27 01:16:58;;;;;;;32.47;12.90;;;11.50;99.90;;;;;;4997305;28;20038;-89
2023/10/27 01:19:24;;;;;;;30.20;13.35;;;11.50;99.90;;;;;;4998617;28;20030;-87
2023/10/27 01:21:49;;;;;;;29.85;12.40;;;11.50;99.90;;;;;;4997611;28;20022;-89
2023/10/27 01:24:15;;;;;;;29.38;12.57;;;11.50;99.90;;;;;;4996204;28;20117;-90
2023/10/27 01:26:41;;;;;;;25.95;12.35;;;11.50;99.90;;;;;;4993160;28;20030;-87
2023/10/27 01:29:06;;;;;;;30.10;13.30;;;11.50;99.90;;;;;;4996369;28;20059;-87
2023/10/27 01:31:34;;;;;;;29.80;13.23;;;11.40;99.90;;;;;;4996464;28;20038;-88
2023/10/27 01:33:59;;;;;;;27.73;12.55;;;11.50;99.90;;;;;;4996165;28;20049;-87
2023/10/27 01:36:25;;;;;;;24.25;12.52;;;11.50;99.90;;;;;;4996667;28;20030;-89
2023/10/27 01:38:51;;;;;;;30.35;13.57;;;11.60;99.90;;;;;;4995963;28;20022;-90
2023/10/27 01:41:17;;;;;;;28.90;10.77;;;11.60;99.90;;;;;;4996229;28;20062;-88
2023/10/27 01:43:43;;;;;;;28.33;11.55;;;11.60;99.90;;;;;;4994277;28;20553;-89
2023/10/27 01:46:08;;;;;;;23.65;11.48;;;11.60;99.90;;;;;;4996976;28;20018;-90
2023/10/27 01:48:36;;;;;;;23.98;11.30;;;11.60;99.90;;;;;;4996355;28;20049;-90
2023/10/27 01:51:03;;;;;;;;;;;11.60;99.90;;;;;;4999566;28;20046;-90
2023/10/27 01:53:31;;;;;;;23.80;9.88;;;11.60;99.90;;;;;;4999045;28;20402;-89
2023/10/27 01:55:56;;;;;;;22.92;10.10;;;11.60;99.90;;;;;;4999563;28;20014;-91
2023/10/27 01:58:24;;;;;;;23.45;12.15;;;11.50;99.90;;;;;;4995035;28;20037;-88
2023/10/27 02:00:50;;;;;;;30.30;10.82;;;11.50;99.90;;;;;;4994909;28;20063;-90
2023/10/27 02:03:15;;;;;;;25.98;10.18;;;11.50;99.90;;;;;;4996436;28;20037;-90
2023/10/27 02:05:44;;;;;;;30.98;10.95;;;11.50;99.90;;;;;;4955278;28;20039;-89
2023/10/27 02:08:10;;;;;;;23.65;10.43;;;11.50;99.90;;;;;;4955577;29;20048;-89
2023/10/27 02:10:36;;;;;;;21.83;10.82;;;11.50;99.90;;;;;;4939130;29;20083;-90
2023/10/27 02:13:03;;;;;;;23.92;10.18;;;11.50;99.90;;;;;;4938429;29;20451;-87
2023/10/27 02:15:28;;;;;;;24.50;10.63;;;11.50;99.90;;;;;;4954706;28;20028;-90
2023/10/27 02:17:55;;;;;;;22.77;10.77;;;11.50;99.90;;;;;;4954608;28;20039;-88
2023/10/27 02:20:20;;;;;;;18.70;9.70;;;11.50;99.90;;;;;;4967871;28;20035;-89
2023/10/27 02:22:46;;;;;;;22.98;11.05;;;11.50;99.90;;;;;;4958038;28;20078;-88
2023/10/27 02:25:12;;;;;;;24.35;10.57;;;11.40;99.90;;;;;;4974601;28;20034;-88
2023/10/27 02:27:41;;;;;;;28.05;10.75;;;11.50;99.90;;;;;;4974315;28;20110;-89
2023/10/27 02:30:08;;;;;;;22.98;10.10;;;11.50;99.90;;;;;;4958503;28;20484;-89
2023/10/27 02:32:33;;;;;;;21.63;9.73;;;11.50;99.90;;;;;;4954876;28;20427;-88
2023/10/27 02:34:59;;;;;;;20.52;9.40;;;11.50;99.90;;;;;;4939264;29;20024;-87
2023/10/27 02:37:25;;;;;;;19.98;10.10;;;11.40;99.90;;;;;;4987203;28;20137;-87
2023/10/27 02:39:51;;;;;;;26.95;10.73;;;11.50;99.90;;;;;;4995589;28;20030;-89
2023/10/27 02:42:17;;;;;;;21.15;10.48;;;11.50;99.90;;;;;;4994559;28;20061;-88
2023/10/27 02:44:42;;;;;;;19.20;8.98;;;11.50;99.90;;;;;;4994626;28;20041;-88
2023/10/27 02:47:08;;;;;;;18.27;9.40;;;11.50;99.90;;;;;;4995371;28;20474;-89
2023/10/27 02:49:34;;;;;;;20.15;9.68;;;11.50;99.90;;;;;;4995499;28;20053;-88
2023/10/27 02:52:00;;;;;;;19.13;9.05;;;11.50;99.90;;;;;;4995422;28;20023;-89
2023/10/27 02:54:27;;;;;;;23.73;10.32;;;11.50;99.90;;;;;;4994512;28;20037;-88
2023/10/27 02:56:52;;;;;;;21.60;10.13;;;11.50;99.90;;;;;;4993624;28;20471;-89
2023/10/27 02:59:18;;;;;;;23.63;10.73;;;11.50;99.90;;;;;;4994289;28;20073;-88
2023/10/27 03:01:45;;;;;;;24.05;10.95;;;11.40;99.90;;;;;;4995205;28;20130;-89
2023/10/27 03:04:10;;;;;;;22.73;10.38;;;11.40;99.90;;;;;;4995042;28;20514;-86
2023/10/27 03:06:36;;;;;;;21.52;9.98;;;11.40;99.90;;;;;;4996021;28;20019;-87
2023/10/27 03:09:03;;;;;;;22.35;10.50;;;11.40;99.90;;;;;;4995241;28;20057;-89
2023/10/27 03:11:28;;;;;;;21.90;9.85;;;11.40;99.90;;;;;;4994190;28;20134;-89
2023/10/27 03:13:54;;;;;;;21.85;9.98;;;11.40;99.90;;;;;;4995630;28;20073;-88
2023/10/27 03:16:21;;;;;;;17.35;9.35;;;11.40;99.90;;;;;;4993487;28;20028;-88
2023/10/27 03:18:50;;;;;;;20.08;9.10;;;11.40;99.90;;;;;;4995263;28;20026;-89
2023/10/27 03:21:16;;;;;;;17.90;9.35;;;11.40;99.90;;;;;;4995858;28;20528;-89
2023/10/27 03:23:41;;;;;;;16.05;8.55;;;11.40;99.90;;;;;;4995631;28;20109;-88
2023/10/27 03:26:10;;;;;;;16.10;8.20;;;11.40;99.90;;;;;;4993899;28;20519;-88
2023/10/27 03:28:35;;;;;;;13.82;7.88;;;11.50;99.90;;;;;;4994264;28;20022;-88
2023/10/27 03:31:01;;;;;;;18.52;8.00;;;11.50;99.90;;;;;;4993811;28;20033;-88
2023/10/27 03:33:27;;;;;;;15.48;8.07;;;11.50;99.90;;;;;;4993543;28;20018;-88
2023/10/27 03:35:55;;;;;;;17.45;7.75;;;11.50;99.90;;;;;;4993856;28;20475;-87
2023/10/27 03:38:23;;;;;;;16.70;7.88;;;11.40;99.90;;;;;;4992772;28;20076;-88
2023/10/27 03:40:49;;;;;;;14.90;8.18;;;11.40;99.90;;;;;;4992627;28;20109;-88
2023/10/27 03:43:15;;;;;;;16.63;7.22;;;11.50;99.90;;;;;;4992841;28;20113;-88
2023/10/27 03:45:41;;;;;;;15.32;7.88;;;11.60;99.90;;;;;;4993402;28;20040;-88
2023/10/27 03:48:06;;;;;;;14.80;8.13;;;11.60;99.90;;;;;;4994175;28;20058;-88
2023/10/27 03:50:32;;;;;;;12.82;6.70;;;11.50;99.90;;;;;;4995231;28;20174;-89
2023/10/27 03:52:58;;;;;;;14.00;7.07;;;11.50;99.90;;;;;;4996747;28;20038;-88
2023/10/27 03:55:27;;;;;;;13.77;7.72;;;11.60;99.90;;;;;;4996340;28;20475;-88
2023/10/27 03:57:55;;;;;;;14.30;7.88;;;11.60;99.90;;;;;;4996458;28;20085;-88
2023/10/27 04:00:21;;;;;;;15.05;7.47;;;11.60;99.90;;;;;;4995994;28;20483;-89
2023/10/27 04:02:46;;;;;;;13.15;6.63;;;11.60;99.90;;;;;;4996072;28;20093;-88
2023/10/27 04:05:30;;;;;;;14.23;6.90;;;11.50;99.90;;;;;;4996314;28;20018;-88
2023/10/27 04:08:01;;;;;;;11.27;6.22;;;11.50;99.90;;;;;;4996998;28;20110;-87
2023/10/27 04:10:28;;;;;;;14.27;6.93;;;11.50;99.90;;;;;;4995665;28;20073;-87
2023/10/27 04:12:56;;;;;;;13.05;6.43;;;11.50;99.90;;;;;;4996746;28;20029;-87
2023/10/27 04:15:21;;;;;;;13.68;7.25;;;11.60;99.90;;;;;;4995950;28;20026;-85
2023/10/27 04:17:57;;;;;;;13.38;7.10;;;11.50;99.90;;;;;;4997007;28;20027;-88
2023/10/27 04:20:23;;;;;;;13.27;6.97;;;11.50;99.90;;;;;;4996721;28;20038;-87
2023/10/27 04:22:49;;;;;;;12.50;6.03;;;11.50;99.90;;;;;;4996469;28;20479;-87
2023/10/27 04:25:15;;;;;;;10.90;6.60;;;11.50;99.90;;;;;;4997997;28;20180;-88
2023/10/27 04:27:43;;;;;;;11.88;6.07;;;11.60;99.90;;;;;;4996731;28;20079;-88
2023/10/27 04:30:11;;;;;;;12.50;6.20;;;11.60;99.90;;;;;;4995774;28;20026;-88
2023/10/27 04:32:40;;;;;;;;;;;11.60;99.90;;;;;;4996698;28;20562;-88
2023/10/27 04:35:06;;;;;;;12.73;5.45;;;11.60;99.90;;;;;;4996498;28;19917;-89
2023/10/27 04:37:33;;;;;;;11.23;5.57;;;11.60;99.90;;;;;;4997205;28;20390;-88
2023/10/27 04:40:02;;;;;;;10.30;5.43;;;11.60;99.90;;;;;;4996290;28;20122;-90
2023/10/27 04:42:28;;;;;;;10.82;6.13;;;11.60;99.90;;;;;;4996526;28;20054;-89
2023/10/27 04:44:54;;;;;;;9.93;5.45;;;11.70;99.90;;;;;;4997727;28;20025;-88
2023/10/27 04:47:19;;;;;;;8.98;5.65;;;11.70;99.90;;;;;;4996984;28;20034;-89
2023/10/27 04:49:46;;;;;;;10.88;6.03;;;11.60;99.90;;;;;;4996513;28;20026;-88
2023/10/27 04:52:12;;;;;;;9.87;5.63;;;11.60;99.90;;;;;;4997483;28;20022;-86
2023/10/27 04:54:38;;;;;;;12.45;5.45;;;11.70;99.90;;;;;;4996828;28;20100;-88
2023/10/27 04:57:05;;;;;;;11.50;4.80;;;11.70;99.90;;;;;;4995634;28;20015;-88
2023/10/27 04:59:32;;;;;;;8.15;4.70;;;11.70;99.90;;;;;;4995031;28;20117;-88
2023/10/27 05:01:57;;;;;;;12.75;5.50;;;11.70;99.90;;;;;;4994485;28;20038;-87
2023/10/27 05:04:23;;;;;;;10.00;5.68;;;11.70;99.90;;;;;;4996652;28;20037;-87
2023/10/27 05:06:49;;;;;;;10.35;5.57;;;11.80;99.90;;;;;;4995401;28;20030;-87
2023/10/27 05:09:18;;;;;;;8.63;5.30;;;11.70;99.90;;;;;;4994848;28;20043;-87
2023/10/27 05:11:45;;;;;;;8.35;4.95;;;11.70;99.90;;;;;;4995506;28;20030;-87
2023/10/27 05:14:12;;;;;;;9.45;5.15;;;11.70;99.90;;;;;;4994848;28;20105;-87
2023/10/27 05:16:38;;;;;;;9.38;5.18;;;11.70;99.90;;;;;;4996336;28;20027;-87
2023/10/27 05:19:04;;;;;;;9.82;4.70;;;11.70;99.90;;;;;;4996056;28;20076;-87
2023/10/27 05:21:30;;;;;;;7.50;5.18;;;11.60;99.90;;;;;;4995910;28;20022;-86
2023/10/27 05:23:57;;;;;;;6.93;4.55;;;11.70;99.90;;;;;;4995803;28;20130;-86
2023/10/27 05:26:24;;;;;;;6.63;4.63;;;11.60;99.90;;;;;;4996304;28;20089;-89
2023/10/27 05:28:50;;;;;;;8.63;5.13;;;11.60;99.90;;;;;;4992285;28;20380;-88
2023/10/27 05:31:16;;;;;;;7.65;4.43;;;11.70;99.90;;;;;;4995639;28;20395;-90
2023/10/27 05:33:42;;;;;;;8.13;5.45;;;11.70;99.90;;;;;;4995238;28;20027;-89
2023/10/27 05:36:13;;;;;;;7.60;4.18;;;11.70;99.90;;;;;;4997418;28;20478;-90
2023/10/27 05:38:38;;;;;;;9.00;4.68;;;11.70;99.90;;;;;;4997276;28;20497;-91
2023/10/27 05:41:04;;;;;;;9.20;5.28;;;11.70;99.90;;;;;;4997881;28;20027;-92
2023/10/27 05:43:30;;;;;;;8.93;4.40;;;11.70;99.90;;;;;;4998771;28;20509;-91
2023/10/27 05:45:56;;;;;;;8.23;4.32;;;11.70;99.90;;;;;;4997488;28;20034;-91
2023/10/27 05:48:21;;;;;;;9.93;5.60;;;11.60;99.90;;;;;;4999217;28;20038;-92
2023/10/27 05:50:47;;;;;;;9.60;5.22;;;11.60;99.90;;;;;;4999765;28;20034;-92
2023/10/27 05:53:16;;;;;;;6.13;3.80;;;11.60;99.90;;;;;;4999636;28;20173;-93
2023/10/27 05:55:45;;;;;;;6.13;4.10;;;11.60;99.90;;;;;;4998447;28;20033;-91
2023/10/27 05:58:36;;;;;;;9.48;4.18;;;11.60;99.90;;;;;;5004960;28;20050;-93
2023/10/27 06:01:19;;;;;;;9.60;4.57;;;11.60;99.90;;;;;;4980263;28;20039;-93
2023/10/27 06:04:41;;;;;;;;;;;;;;;;;;;;;
2023/10/27 06:07:09;;;;;;;7.78;3.80;;;11.60;99.90;;;;;;4975876;28;20121;-93
2023/10/27 06:09:57;;;;;;;6.20;3.90;;;11.50;99.90;;;;;;4979133;28;20035;-93
2023/10/27 06:12:33;;;;;;;9.25;4.00;;;11.60;99.90;;;;;;4960186;28;20035;-91
2023/10/27 06:15:25;;;;;;;6.80;3.72;;;11.60;99.90;;;;;;4977577;28;20027;-94
2023/10/27 06:17:51;;;;;;;4.13;3.30;;;11.60;99.90;;;;;;4975661;28;20046;-93
2023/10/27 06:20:23;;;;;;;5.85;3.25;;;11.60;99.90;;;;;;4979243;28;20594;-95
2023/10/27 06:22:50;;;;;;;6.93;3.85;;;11.60;99.90;;;;;;4977646;28;20106;-93
2023/10/27 06:25:25;;;;;;;5.65;3.22;;;11.50;99.90;;;;;;4974627;28;20049;-93
2023/10/27 06:28:28;;;;;;;4.82;3.20;;;11.60;99.90;;;;;;4998786;28;20521;-93
2023/10/27 06:30:54;;;;;;;2.75;2.25;;;11.60;99.90;;;;;;4982857;28;20041;-93
2023/10/27 06:33:22;;;;;;;6.85;3.30;;;11.60;99.90;;;;;;4982798;28;20534;-93
2023/10/27 06:35:49;;;;;;;4.93;2.70;;;11.60;99.90;;;;;;4994861;28;20498;-91
2023/10/27 06:38:14;;;;;;;5.38;3.00;;;11.60;99.90;;;;;;4981097;28;20037;-91
2023/10/27 06:40:41;;;;;;;4.25;3.10;;;11.50;99.90;;;;;;4981218;28;20042;-93
2023/10/27 06:43:07;;;;;;;5.88;3.05;;;11.50;99.90;;;;;;4981129;28;20074;-91
2023/10/27 06:45:33;;;;;;;5.43;3.10;;;11.50;99.90;;;;;;4980921;28;20560;-93
2023/10/27 06:48:23;;;;;;;5.30;3.28;;;11.50;99.90;;;;;;4997117;28;20098;-92
2023/10/27 06:51:52;;;;;;;6.85;2.72;;;11.60;99.90;;;;;;4999260;28;20110;-93
2023/10/27 06:55:31;;;;;;;4.05;2.95;;;11.60;99.90;;;;;;4924722;29;20040;-93
2023/10/27 06:58:12;;;;;;;5.45;3.63;;;11.60;99.90;;;;;;4856965;29;20042;-92
2023/10/27 07:00:53;;;;;;;4.00;2.58;;;11.70;99.90;;;;;;4850525;29;20041;-92
2023/10/27 07:04:35;;;;;;;6.72;2.78;;;11.70;99.90;;;;;;4922577;29;20048;-94
2023/10/27 07:07:48;;;;;;;;;;;;;;;;;;;;;
2023/10/27 07:14:14;;;;;;;;;;;;;;;;;;;;;
2023/10/27 07:17:00;;;;;;;10.60;3.83;;;11.70;99.90;;;;;;4980859;28;20118;-94
2023/10/27 07:26:51;;;;;;;6.95;3.83;;;11.80;99.90;;;;;;5005675;28;20054;-94
2023/10/27 07:29:47;;;;;;;;;;;;;;;;;;;;;
2023/10/27 07:33:00;;;;;;;7.43;4.05;;;11.90;99.90;;;;;;4925960;28;20079;-94
2023/10/27 07:42:02;;;;;;;7.25;3.85;;;11.90;99.90;;;;;;5074404;28;20114;-48
2023/10/27 07:44:28;;;;;;;6.95;3.55;;;11.90;99.90;;;;;;5075805;28;20020;-50
2023/10/27 07:46:53;;;;;;;5.45;2.83;;;11.90;99.90;;;;;;5057771;28;20027;-45
2023/10/27 07:49:19;;;;;;;6.70;3.90;;;12.00;99.90;;;;;;5075654;28;20438;-48
2023/10/27 07:51:45;;;;;;;11.35;4.00;;;12.00;99.90;;;;;;5067124;28;20024;-48
2023/10/27 07:54:10;;;;;;;9.75;3.85;;;12.00;99.90;;;;;;5065193;28;20021;-58
2023/10/27 07:56:36;;;;;;;8.75;4.05;;;12.00;99.90;;;;;;5055840;28;20020;-51
2023/10/27 07:59:02;;;;;;;5.93;3.80;;;12.00;99.90;;;;;;5055492;28;20031;-52
2023/10/27 08:01:28;;;;;;;7.43;4.03;;;12.00;99.90;;;;;;5055485;28;20021;-47
2023/10/27 08:03:53;;;;;;;8.00;3.75;;;12.00;99.90;;;;;;5055577;28;20489;-53
2023/10/27 08:06:19;;;;;;;7.72;3.88;;;12.10;99.90;;;;;;5055515;28;20389;-49
2023/10/27 08:08:46;;;;;;;4.88;3.08;;;12.10;99.90;;;;;;5054500;28;20024;-52
2023/10/27 08:11:18;;;;;;;6.50;4.25;;;12.10;99.90;;;;;;5055607;28;20025;-51
2023/10/27 08:13:44;;;;;;;5.65;3.30;;;12.10;99.90;;;;;;5055332;28;20029;-52
2023/10/27 08:16:10;;;;;;;5.07;3.60;;;12.10;99.90;;;;;;5055221;28;20393;-49
2023/10/27 08:18:36;;;;;;;5.90;3.47;;;12.10;99.90;;;;;;5055158;28;20033;-51
2023/10/27 08:21:02;;;;;;;10.95;3.97;;;12.10;99.90;;;;;;5074730;28;20020;-50
2023/10/27 08:23:28;;;;;;;5.72;3.60;;;12.10;99.90;;;;;;5075382;28;20020;-49
2023/10/27 08:25:54;;;;;;;4.90;3.35;;;12.10;99.90;;;;;;5045804;28;20028;-51
2023/10/27 08:28:20;;;;;;;6.38;3.20;;;12.10;99.90;;;;;;5035046;28;20041;-51
2023/10/27 08:30:46;;;;;;;6.07;3.33;;;12.10;99.90;;;;;;5035284;28;20041;-51
2023/10/27 08:33:14;;;;;;;7.88;3.83;;;12.10;99.90;;;;;;5034963;28;20100;-52
2023/10/27 08:35:40;;;;;;;11.60;4.55;;;12.10;99.90;;;;;;5034380;28;20017;-53
2023/10/27 08:38:05;;;;;;;8.85;3.50;;;12.10;99.90;;;;;;5034817;28;20040;-53
2023/10/27 08:40:31;;;;;;;7.88;4.35;;;12.20;99.90;;;;;;5034580;28;20051;-49
2023/10/27 08:42:57;;;;;;;6.85;3.63;;;12.20;99.90;;;;;;5040364;28;20040;-51
2023/10/27 08:45:23;;;;;;;6.38;3.35;;;12.20;99.90;;;;;;5054699;28;20393;-52
2023/10/27 08:47:50;;;;;;;6.07;4.10;;;12.20;99.90;;;;;;5054505;28;20033;-50
2023/10/27 08:50:16;;;;;;;5.50;3.50;;;12.30;99.90;;;;;;5054472;28;20485;-57
2023/10/27 08:52:42;;;;;;;5.38;3.55;;;12.40;99.90;;;;;;5054791;28;20014;-49
2023/10/27 08:55:09;;;;;;;6.57;3.08;;;12.40;99.90;;;;;;5054445;28;20014;-51
2023/10/27 08:57:36;;;;;;;5.85;3.38;;;12.40;99.90;;;;;;5054463;28;20473;-50
2023/10/27 09:00:05;;;;;;;6.15;3.30;;;12.40;99.90;;;;;;5035812;28;20017;-52
2023/10/27 09:02:32;;;;;;;4.70;2.97;;;12.40;99.90;;;;;;5036460;28;20029;-52
2023/10/27 09:05:03;;;;;;;6.40;3.50;;;12.40;99.90;;;;;;5054262;28;20025;-50
2023/10/27 09:07:31;;;;;;;6.85;3.42;;;12.40;99.90;;;;;;5054156;28;20112;-52
2023/10/27 09:10:00;;;;;;;5.45;3.53;;;12.40;99.90;;;;;;5054557;28;20017;-51
2023/10/27 09:12:29;;;;;;;6.13;2.70;;;12.40;99.90;;;;;;5036228;28;20032;-52
2023/10/27 09:15:08;;;;;;;6.22;3.28;;;12.40;99.90;;;;;;5054084;28;20032;-53
2023/10/27 09:17:53;;;;;;;4.40;2.92;;;12.50;99.90;;;;;;5053276;28;20385;-52
2023/10/27 09:20:29;;;;;;;5.13;2.95;;;12.50;99.90;;;;;;5054103;28;20033;-51
2023/10/27 09:23:04;;;;;;;5.38;2.85;;;12.50;99.90;;;;;;5053982;28;20035;-51
2023/10/27 09:25:33;;;;;;;4.22;2.80;;;12.60;99.90;;;;;;5053864;28;20021;-52
2023/10/27 09:28:01;;;;;;;4.45;2.42;;;12.60;99.90;;;;;;5036560;28;20544;-53
2023/10/27 09:30:28;;;;;;;;;;;12.50;99.90;;;;;;5054357;28;20017;-49
2023/10/27 09:32:55;;;;;;;2.22;1.92;;;12.50;99.90;;;;;;5053858;28;19909;-48
2023/10/27 09:35:22;;;;;;;6.88;2.45;;;12.60;99.90;;;;;;5036693;28;20120;-52
2023/10/27 09:37:49;;;;;;;4.90;2.78;;;12.50;99.90;;;;;;5033728;28;20049;-52
2023/10/27 09:40:15;;;;;;;4.60;2.47;;;12.50;99.90;;;;;;5033521;28;20413;-53
2023/10/27 09:42:43;;;;;;;3.00;2.38;;;12.50;99.90;;;;;;5033628;28;20017;-51
2023/10/27 09:45:13;;;;;;;3.90;2.17;;;12.50;99.90;;;;;;5033777;28;20026;-52
2023/10/27 09:47:50;;;;;;;3.75;2.50;;;12.50;99.90;;;;;;5014949;28;20021;-49
2023/10/27 09:50:24;;;;;;;2.50;2.10;;;12.60;99.90;;;;;;5034311;28;20381;-49
2023/10/27 09:52:50;;;;;;;4.03;2.25;;;12.50;99.90;;;;;;5033495;28;20029;-52
2023/10/27 09:55:19;;;;;;;6.00;1.90;;;12.50;99.90;;;;;;5033347;28;20036;-51
2023/10/27 09:57:45;;;;;;;3.08;2.45;;;12.60;99.90;;;;;;5016214;28;20037;-51
2023/10/27 10:00:21;;;;;;;6.20;2.63;;;12.60;99.90;;;;;;5033627;28;20470;-51
2023/10/27 10:02:48;;;;;;;5.57;3.10;;;12.50;99.90;;;;;;5033473;28;20075;-47
2023/10/27 10:05:14;;;;;;;3.80;2.55;;;12.50;99.90;;;;;;5033311;28;20057;-51
2023/10/27 10:07:43;;;;;;;3.80;2.55;;;12.60;99.90;;;;;;5033741;28;20505;-53
2023/10/27 10:10:18;;;;;;;2.20;2.00;;;12.60;99.90;;;;;;5033254;28;20502;-52
2023/10/27 10:13:05;;;;;;;3.10;2.15;;;12.60;99.90;;;;;;5033140;28;20056;-50
2023/10/27 10:15:32;;;;;;;6.80;2.30;;;12.60;99.90;;;;;;5033121;28;20389;-48
2023/10/27 10:18:03;;;;;;;5.30;2.88;;;12.60;99.90;;;;;;5033055;28;20264;-47
2023/10/27 10:20:59;;;;;;;3.70;2.35;;;12.60;99.90;;;;;;5063141;28;20404;-46
2023/10/27 10:23:38;;;;;;;4.13;2.47;;;12.50;99.90;;;;;;5071200;28;20040;-50
2023/10/27 10:26:04;;;;;;;2.60;2.35;;;12.40;99.90;;;;;;5042402;28;20031;-51
2023/10/27 10:28:36;;;;;;;3.78;2.60;;;12.40;99.90;;;;;;5032920;28;20381;-52
2023/10/27 10:31:08;;;;;;;3.90;2.40;;;12.40;99.90;;;;;;5033161;28;20564;-53
2023/10/27 10:33:37;;;;;;;4.10;2.58;;;12.40;99.90;;;;;;5033149;28;20033;-51
2023/10/27 10:36:27;;;;;;;3.90;2.65;;;12.40;99.90;;;;;;5032892;28;20029;-53
2023/10/27 10:38:58;;;;;;;3.58;2.63;;;12.50;99.90;;;;;;5025061;28;20098;-54
2023/10/27 10:41:47;;;;;;;3.80;2.65;;;12.40;99.90;;;;;;5033051;28;20104;-49
2023/10/27 10:44:14;;;;;;;4.40;2.63;;;12.40;99.90;;;;;;5032734;28;20046;-51
2023/10/27 10:46:44;;;;;;;4.50;2.60;;;12.40;99.90;;;;;;5032835;28;20390;-53
2023/10/27 10:49:12;;;;;;;4.97;3.25;;;12.40;99.90;;;;;;5032927;28;20496;-54
2023/10/27 10:51:39;;;;;;;5.53;2.80;;;12.40;99.90;;;;;;5032614;28;20049;-51
2023/10/27 10:54:13;;;;;;;5.13;2.90;;;12.40;99.90;;;;;;5032900;28;20481;-53
2023/10/27 10:56:40;;;;;;;4.47;2.90;;;12.50;99.90;;;;;;5032721;28;20474;-53
2023/10/27 10:59:05;;;;;;;5.50;2.38;;;12.50;99.90;;;;;;5041561;28;20492;-52
2023/10/27 11:01:33;;;;;;;4.03;2.15;;;12.50;99.90;;;;;;5056717;28;20025;-54
2023/10/27 11:03:58;;;;;;;3.55;2.35;;;12.60;99.90;;;;;;5038732;28;20033;-62
2023/10/27 11:06:26;;;;;;;3.40;2.58;;;12.60;99.90;;;;;;5056562;28;20051;-53
2023/10/27 11:08:53;;;;;;;;;;;12.60;99.90;;;;;;5056851;28;20032;-54
2023/10/27 11:11:19;;;;;;;2.55;2.20;;;12.50;99.90;;;;;;5056483;28;19959;-52
2023/10/27 11:13:46;;;;;;;2.45;2.00;;;12.60;99.90;;;;;;5056428;28;20031;-49
2023/10/27 11:16:21;;;;;;;2.45;2.08;;;12.50;99.90;;;;;;5055580;28;20100;-53
2023/10/27 11:18:59;;;;;;;3.25;2.00;;;12.60;99.90;;;;;;5057599;28;20545;-52
2023/10/27 11:21:29;;;;;;;1.83;1.63;;;12.60;99.90;;;;;;5076729;28;20538;-51
2023/10/27 11:23:55;;;;;;;4.13;1.75;;;12.60;99.90;;;;;;5076278;28;20024;-53
2023/10/27 11:26:24;;;;;;;2.67;1.55;;;12.60;99.90;;;;;;5076118;28;20037;-53
2023/10/27 11:28:53;;;;;;;3.22;1.83;;;12.60;99.90;;;;;;5076033;28;20033;-50
2023/10/27 11:31:22;;;;;;;2.85;1.88;;;12.50;99.90;;;;;;5041952;28;20485;-54
2023/10/27 11:34:04;;;;;;;1.88;1.30;;;12.50;99.90;;;;;;5049427;28;20025;-52
2023/10/27 11:36:40;;;;;;;2.75;1.50;;;12.50;99.90;;;;;;5036097;28;20489;-47
2023/10/27 11:39:17;;;;;;;4.20;1.77;;;12.50;99.90;;;;;;5034758;28;20029;-53
2023/10/27 11:42:03;;;;;;;2.88;2.08;;;12.50;99.90;;;;;;5035885;28;20108;-47
2023/10/27 11:44:30;;;;;;;1.88;1.73;;;12.50;99.90;;;;;;5035643;28;20513;-53
2023/10/27 11:46:57;;;;;;;1.90;1.80;;;12.60;99.90;;;;;;5035914;28;20030;-54
2023/10/27 11:49:25;;;;;;;2.80;1.80;;;12.60;99.90;;;;;;5036391;28;20042;-50
2023/10/27 11:51:52;;;;;;;5.03;2.73;;;12.60;99.90;;;;;;5035767;28;20032;-54
2023/10/27 11:54:18;;;;;;;3.28;2.50;;;12.60;99.90;;;;;;5051068;28;20284;-50
2023/10/27 11:56:45;;;;;;;4.13;2.60;;;12.60;99.90;;;;;;5035660;28;20033;-50
2023/10/27 11:59:11;;;;;;;3.47;2.30;;;12.60;99.90;;;;;;5035633;28;20115;-52
2023/10/27 12:01:38;;;;;;;4.03;2.47;;;12.60;99.90;;;;;;5035569;28;20025;-61
2023/10/27 12:04:07;;;;;;;2.92;2.60;;;12.60;99.90;;;;;;5035537;28;20512;-55
2023/10/27 12:06:33;;;;;;;3.53;2.65;;;12.60;99.90;;;;;;5038315;28;20059;-53
2023/10/27 12:09:00;;;;;;;4.30;2.75;;;12.70;99.90;;;;;;5055361;28;20040;-52
2023/10/27 12:11:27;;;;;;;5.93;3.08;;;12.70;99.90;;;;;;5036443;28;20021;-52
2023/10/27 12:13:53;;;;;;;5.03;3.10;;;12.70;99.90;;;;;;5037719;28;20104;-52
2023/10/27 12:16:19;;;;;;;5.55;3.30;;;12.80;99.90;;;;;;5055350;28;20120;-61
2023/10/27 12:18:45;;;;;;;4.82;2.40;;;12.80;99.90;;;;;;5056130;28;20029;-50
2023/10/27 12:21:11;;;;;;;4.38;2.70;;;12.90;99.90;;;;;;5075256;28;20112;-51
2023/10/27 12:23:36;;;;;;;8.63;2.92;;;12.90;99.90;;;;;;5053126;28;20116;-47
2023/10/27 12:26:03;;;;;;;6.78;3.00;;;12.90;99.90;;;;;;5055138;28;20025;-50
2023/10/27 12:28:29;;;;;;;4.03;3.10;;;12.90;99.90;;;;;;5055249;28;20469;-51
2023/10/27 12:30:56;;;;;;;4.40;3.10;;;12.90;99.90;;;;;;5055018;28;20062;-52
2023/10/27 12:33:22;;;;;;;4.75;2.65;;;12.90;99.90;;;;;;5055189;28;20358;-49
2023/10/27 12:35:51;;;;;;;5.47;3.20;;;12.90;99.90;;;;;;5037047;28;20056;-48
2023/10/27 12:38:18;;;;;;;4.97;2.30;;;12.80;99.90;;;;;;5054882;28;20033;-51
2023/10/27 12:40:47;;;;;;;2.55;2.00;;;12.80;99.90;;;;;;5036250;28;20118;-52
2023/10/27 12:43:16;;;;;;;2.25;2.00;;;12.70;99.90;;;;;;5054747;28;20508;-52
2023/10/27 12:45:42;;;;;;;2.25;1.60;;;12.70;99.90;;;;;;5054721;28;20025;-51
2023/10/27 12:48:09;;;;;;;2.03;1.83;;;12.70;99.90;;;;;;5054557;28;20032;-48
2023/10/27 12:50:36;;;;;;;2.75;1.98;;;12.60;99.90;;;;;;5054768;28;20500;-53
2023/10/27 12:53:03;;;;;;;2.22;1.65;;;12.60;99.90;;;;;;5054399;28;20017;-51
2023/10/27 12:55:32;;;;;;;5.88;2.35;;;12.50;99.90;;;;;;5054573;28;20104;-55
2023/10/27 12:57:58;;;;;;;4.25;2.80;;;12.40;99.90;;;;;;5048458;28;20022;-53
2023/10/27 13:00:29;;;;;;;3.28;2.35;;;12.50;99.90;;;;;;5034609;28;20025;-50
2023/10/27 13:02:59;;;;;;;4.55;2.38;;;12.50;99.90;;;;;;5034561;28;20021;-48
2023/10/27 13:05:26;;;;;;;2.80;2.30;;;12.60;99.90;;;;;;5034547;28;20470;-52
2023/10/27 13:10:36;;;;;;;2.70;2.17;;;12.50;99.90;;;;;;5034738;28;20044;-62
2023/10/27 13:13:02;;;;;;;2.90;2.03;;;12.50;99.90;;;;;;5034369;28;20018;-48
2023/10/27 13:15:31;;;;;;;4.40;2.67;;;12.60;99.90;;;;;;5034837;28;20100;-66
2023/10/27 13:17:56;;;;;;;4.32;2.03;;;12.50;99.90;;;;;;5034284;28;20029;-54